sensor_id;sensor_type;location;lat;lon;timestamp;P1;durP1;ratioP1;P2;durP2;ratioP2
52530;SDS011;38441;52.894;6.040;2022-08-03T00:01:30;5.28;;;1.38;;
52530;SDS011;38441;52.894;6.040;2022-08-03T00:03:56;5.80;;;1.42;;
52530;SDS011;38441;52.894;6.040;2022-08-03T00:06:21;5.13;;;1.50;;
52530;SDS011;38441;52.894;6.040;2022-08-03T00:08:47;7.30;;;1.30;;
52530;SDS011;38441;52.894;6.040;2022-08-03T00:11:13;7.03;;;1.92;;
52530;SDS011;38441;52.894;6.040;2022-08-03T00:13:39;6.15;;;1.70;;
52530;SDS011;38441;52.894;6.040;2022-08-03T00:16:04;5.75;;;1.25;;
52530;SDS011;38441;52.894;6.040;2022-08-03T00:18:30;7.93;;;1.40;;
52530;SDS011;38441;52.894;6.040;2022-08-03T00:20:55;3.40;;;1.17;;
52530;SDS011;38441;52.894;6.040;2022-08-03T00:23:21;8.25;;;1.65;;
52530;SDS011;38441;52.894;6.040;2022-08-03T00:25:47;6.57;;;1.40;;
52530;SDS011;38441;52.894;6.040;2022-08-03T00:28:12;5.38;;;1.30;;
52530;SDS011;38441;52.894;6.040;2022-08-03T00:30:38;4.60;;;1.02;;
52530;SDS011;38441;52.894;6.040;2022-08-03T00:33:04;4.93;;;1.00;;
52530;SDS011;38441;52.894;6.040;2022-08-03T00:35:29;6.40;;;1.10;;
52530;SDS011;38441;52.894;6.040;2022-08-03T00:37:55;6.45;;;0.90;;
52530;SDS011;38441;52.894;6.040;2022-08-03T00:40:21;5.63;;;0.82;;
52530;SDS011;38441;52.894;6.040;2022-08-03T00:42:48;5.25;;;1.15;;
52530;SDS011;38441;52.894;6.040;2022-08-03T00:45:15;7.55;;;1.55;;
52530;SDS011;38441;52.894;6.040;2022-08-03T00:47:41;6.35;;;1.27;;
52530;SDS011;38441;52.894;6.040;2022-08-03T00:50:07;4.78;;;1.27;;
52530;SDS011;38441;52.894;6.040;2022-08-03T00:52:33;5.75;;;1.10;;
52530;SDS011;38441;52.894;6.040;2022-08-03T00:54:59;6.93;;;1.27;;
52530;SDS011;38441;52.894;6.040;2022-08-03T00:57:26;4.80;;;1.00;;
52530;SDS011;38441;52.894;6.040;2022-08-03T00:59:54;6.75;;;1.10;;
52530;SDS011;38441;52.894;6.040;2022-08-03T01:02:20;5.80;;;0.95;;
52530;SDS011;38441;52.894;6.040;2022-08-03T01:04:45;6.25;;;1.20;;
52530;SDS011;38441;52.894;6.040;2022-08-03T01:07:16;5.75;;;1.00;;
52530;SDS011;38441;52.894;6.040;2022-08-03T01:09:57;4.13;;;1.02;;
52530;SDS011;38441;52.894;6.040;2022-08-03T01:20:33;9.30;;;1.25;;
52530;SDS011;38441;52.894;6.040;2022-08-03T01:30:46;3.90;;;1.00;;
52530;SDS011;38441;52.894;6.040;2022-08-03T01:33:21;5.05;;;1.20;;
52530;SDS011;38441;52.894;6.040;2022-08-03T01:38:33;5.32;;;0.93;;
52530;SDS011;38441;52.894;6.040;2022-08-03T01:41:06;4.50;;;0.93;;
52530;SDS011;38441;52.894;6.040;2022-08-03T01:46:04;6.93;;;1.20;;
52530;SDS011;38441;52.894;6.040;2022-08-03T01:48:32;5.05;;;1.10;;
52530;SDS011;38441;52.894;6.040;2022-08-03T01:51:01;5.40;;;1.05;;
52530;SDS011;38441;52.894;6.040;2022-08-03T01:53:27;6.18;;;1.30;;
52530;SDS011;38441;52.894;6.040;2022-08-03T01:55:55;5.30;;;1.55;;
52530;SDS011;38441;52.894;6.040;2022-08-03T01:58:22;5.82;;;1.65;;
52530;SDS011;38441;52.894;6.040;2022-08-03T02:00:49;4.32;;;1.17;;
52530;SDS011;38441;52.894;6.040;2022-08-03T02:03:16;5.22;;;1.52;;
52530;SDS011;38441;52.894;6.040;2022-08-03T02:05:44;3.83;;;1.05;;
52530;SDS011;38441;52.894;6.040;2022-08-03T02:08:12;6.72;;;1.25;;
52530;SDS011;38441;52.894;6.040;2022-08-03T02:10:40;7.80;;;1.25;;
52530;SDS011;38441;52.894;6.040;2022-08-03T02:13:07;6.05;;;1.45;;
52530;SDS011;38441;52.894;6.040;2022-08-03T02:15:37;5.97;;;1.50;;
52530;SDS011;38441;52.894;6.040;2022-08-03T02:18:06;8.02;;;1.55;;
52530;SDS011;38441;52.894;6.040;2022-08-03T02:20:33;5.30;;;1.08;;
52530;SDS011;38441;52.894;6.040;2022-08-03T02:23:02;6.00;;;1.20;;
52530;SDS011;38441;52.894;6.040;2022-08-03T02:25:27;5.95;;;1.33;;
52530;SDS011;38441;52.894;6.040;2022-08-03T02:28:15;5.75;;;1.30;;
52530;SDS011;38441;52.894;6.040;2022-08-03T02:30:44;5.97;;;1.40;;
52530;SDS011;38441;52.894;6.040;2022-08-03T02:33:19;6.43;;;1.55;;
52530;SDS011;38441;52.894;6.040;2022-08-03T02:35:50;3.72;;;1.67;;
52530;SDS011;38441;52.894;6.040;2022-08-03T02:38:19;4.07;;;1.60;;
52530;SDS011;38441;52.894;6.040;2022-08-03T02:40:47;9.10;;;1.65;;
52530;SDS011;38441;52.894;6.040;2022-08-03T02:43:16;4.55;;;1.42;;
52530;SDS011;38441;52.894;6.040;2022-08-03T02:45:45;6.20;;;1.50;;
52530;SDS011;38441;52.894;6.040;2022-08-03T02:48:15;6.47;;;1.70;;
52530;SDS011;38441;52.894;6.040;2022-08-03T02:50:44;6.72;;;1.60;;
52530;SDS011;38441;52.894;6.040;2022-08-03T02:53:11;7.18;;;1.50;;
52530;SDS011;38441;52.894;6.040;2022-08-03T02:55:39;7.93;;;1.90;;
52530;SDS011;38441;52.894;6.040;2022-08-03T02:58:06;8.43;;;2.03;;
52530;SDS011;38441;52.894;6.040;2022-08-03T03:00:33;7.57;;;2.10;;
52530;SDS011;38441;52.894;6.040;2022-08-03T03:03:00;4.90;;;1.92;;
52530;SDS011;38441;52.894;6.040;2022-08-03T03:05:28;8.88;;;2.03;;
52530;SDS011;38441;52.894;6.040;2022-08-03T03:07:54;4.80;;;1.75;;
52530;SDS011;38441;52.894;6.040;2022-08-03T03:10:21;7.05;;;2.30;;
52530;SDS011;38441;52.894;6.040;2022-08-03T03:12:47;4.25;;;2.00;;
52530;SDS011;38441;52.894;6.040;2022-08-03T03:15:15;5.15;;;1.52;;
52530;SDS011;38441;52.894;6.040;2022-08-03T03:17:42;5.28;;;1.75;;
52530;SDS011;38441;52.894;6.040;2022-08-03T03:20:08;6.57;;;1.90;;
52530;SDS011;38441;52.894;6.040;2022-08-03T03:22:34;9.63;;;2.42;;
52530;SDS011;38441;52.894;6.040;2022-08-03T03:25:00;6.65;;;1.83;;
52530;SDS011;38441;52.894;6.040;2022-08-03T03:27:26;6.13;;;1.75;;
52530;SDS011;38441;52.894;6.040;2022-08-03T03:29:52;7.35;;;1.95;;
52530;SDS011;38441;52.894;6.040;2022-08-03T03:32:18;8.30;;;2.10;;
52530;SDS011;38441;52.894;6.040;2022-08-03T03:34:44;7.75;;;2.03;;
52530;SDS011;38441;52.894;6.040;2022-08-03T03:37:10;7.57;;;1.73;;
52530;SDS011;38441;52.894;6.040;2022-08-03T03:39:36;7.18;;;2.10;;
52530;SDS011;38441;52.894;6.040;2022-08-03T03:42:01;5.85;;;2.03;;
52530;SDS011;38441;52.894;6.040;2022-08-03T03:44:28;8.32;;;2.40;;
52530;SDS011;38441;52.894;6.040;2022-08-03T03:46:56;8.27;;;1.83;;
52530;SDS011;38441;52.894;6.040;2022-08-03T03:49:22;8.00;;;2.22;;
52530;SDS011;38441;52.894;6.040;2022-08-03T03:51:47;6.97;;;1.92;;
52530;SDS011;38441;52.894;6.040;2022-08-03T03:54:16;8.80;;;2.22;;
52530;SDS011;38441;52.894;6.040;2022-08-03T03:56:41;8.10;;;2.38;;
52530;SDS011;38441;52.894;6.040;2022-08-03T03:59:07;7.70;;;2.45;;
52530;SDS011;38441;52.894;6.040;2022-08-03T04:01:33;8.77;;;2.03;;
52530;SDS011;38441;52.894;6.040;2022-08-03T04:03:58;8.15;;;2.35;;
52530;SDS011;38441;52.894;6.040;2022-08-03T04:06:44;8.60;;;2.13;;
52530;SDS011;38441;52.894;6.040;2022-08-03T04:09:28;6.30;;;2.47;;
52530;SDS011;38441;52.894;6.040;2022-08-03T04:12:13;7.88;;;2.38;;
52530;SDS011;38441;52.894;6.040;2022-08-03T04:14:41;6.22;;;1.80;;
52530;SDS011;38441;52.894;6.040;2022-08-03T04:17:08;6.65;;;1.63;;
52530;SDS011;38441;52.894;6.040;2022-08-03T04:19:37;8.23;;;2.60;;
52530;SDS011;38441;52.894;6.040;2022-08-03T04:22:08;6.17;;;1.77;;
52530;SDS011;38441;52.894;6.040;2022-08-03T04:24:40;7.50;;;1.98;;
52530;SDS011;38441;52.894;6.040;2022-08-03T04:27:10;5.57;;;1.75;;
52530;SDS011;38441;52.894;6.040;2022-08-03T04:29:39;6.20;;;1.90;;
52530;SDS011;38441;52.894;6.040;2022-08-03T04:32:07;5.05;;;1.83;;
52530;SDS011;38441;52.894;6.040;2022-08-03T04:34:34;5.85;;;1.98;;
52530;SDS011;38441;52.894;6.040;2022-08-03T04:37:00;8.85;;;2.58;;
52530;SDS011;38441;52.894;6.040;2022-08-03T04:39:33;5.70;;;1.63;;
52530;SDS011;38441;52.894;6.040;2022-08-03T04:42:03;6.72;;;1.90;;
52530;SDS011;38441;52.894;6.040;2022-08-03T04:44:34;7.47;;;1.88;;
52530;SDS011;38441;52.894;6.040;2022-08-03T04:47:04;7.03;;;2.03;;
52530;SDS011;38441;52.894;6.040;2022-08-03T04:49:30;6.22;;;1.83;;
52530;SDS011;38441;52.894;6.040;2022-08-03T04:51:56;7.13;;;2.17;;
52530;SDS011;38441;52.894;6.040;2022-08-03T04:54:22;5.15;;;1.80;;
52530;SDS011;38441;52.894;6.040;2022-08-03T04:56:48;6.25;;;1.65;;
52530;SDS011;38441;52.894;6.040;2022-08-03T04:59:13;8.20;;;2.30;;
52530;SDS011;38441;52.894;6.040;2022-08-03T05:01:41;7.68;;;2.00;;
52530;SDS011;38441;52.894;6.040;2022-08-03T05:04:08;5.35;;;1.60;;
52530;SDS011;38441;52.894;6.040;2022-08-03T05:06:34;9.18;;;2.00;;
52530;SDS011;38441;52.894;6.040;2022-08-03T05:09:00;8.20;;;2.03;;
52530;SDS011;38441;52.894;6.040;2022-08-03T05:11:25;8.88;;;2.25;;
52530;SDS011;38441;52.894;6.040;2022-08-03T05:13:51;7.47;;;2.20;;
52530;SDS011;38441;52.894;6.040;2022-08-03T05:16:17;8.02;;;2.53;;
52530;SDS011;38441;52.894;6.040;2022-08-03T05:18:42;8.70;;;2.20;;
52530;SDS011;38441;52.894;6.040;2022-08-03T05:21:09;8.98;;;2.10;;
52530;SDS011;38441;52.894;6.040;2022-08-03T05:23:37;9.63;;;2.80;;
52530;SDS011;38441;52.894;6.040;2022-08-03T05:26:03;7.65;;;2.35;;
52530;SDS011;38441;52.894;6.040;2022-08-03T05:28:29;8.50;;;2.50;;
52530;SDS011;38441;52.894;6.040;2022-08-03T05:30:54;5.57;;;2.15;;
52530;SDS011;38441;52.894;6.040;2022-08-03T05:33:20;13.27;;;2.95;;
52530;SDS011;38441;52.894;6.040;2022-08-03T05:35:46;7.40;;;2.45;;
52530;SDS011;38441;52.894;6.040;2022-08-03T05:38:11;7.68;;;2.38;;
52530;SDS011;38441;52.894;6.040;2022-08-03T05:40:37;6.78;;;2.45;;
52530;SDS011;38441;52.894;6.040;2022-08-03T05:43:03;14.30;;;3.33;;
52530;SDS011;38441;52.894;6.040;2022-08-03T05:45:28;9.68;;;2.50;;
52530;SDS011;38441;52.894;6.040;2022-08-03T05:47:54;7.90;;;2.63;;
52530;SDS011;38441;52.894;6.040;2022-08-03T05:50:20;6.18;;;2.55;;
52530;SDS011;38441;52.894;6.040;2022-08-03T05:52:46;7.93;;;2.33;;
52530;SDS011;38441;52.894;6.040;2022-08-03T05:55:12;8.93;;;2.85;;
52530;SDS011;38441;52.894;6.040;2022-08-03T05:57:38;8.85;;;2.88;;
52530;SDS011;38441;52.894;6.040;2022-08-03T06:00:08;9.32;;;2.65;;
52530;SDS011;38441;52.894;6.040;2022-08-03T06:02:35;8.75;;;2.70;;
52530;SDS011;38441;52.894;6.040;2022-08-03T06:05:00;6.47;;;3.03;;
52530;SDS011;38441;52.894;6.040;2022-08-03T06:07:26;8.63;;;2.28;;
52530;SDS011;38441;52.894;6.040;2022-08-03T06:09:52;10.13;;;2.50;;
52530;SDS011;38441;52.894;6.040;2022-08-03T06:12:18;11.02;;;3.22;;
52530;SDS011;38441;52.894;6.040;2022-08-03T06:14:44;7.50;;;2.53;;
52530;SDS011;38441;52.894;6.040;2022-08-03T06:17:09;10.18;;;3.45;;
52530;SDS011;38441;52.894;6.040;2022-08-03T06:19:35;11.63;;;2.88;;
52530;SDS011;38441;52.894;6.040;2022-08-03T06:22:01;9.13;;;2.50;;
52530;SDS011;38441;52.894;6.040;2022-08-03T06:24:27;10.45;;;2.80;;
52530;SDS011;38441;52.894;6.040;2022-08-03T06:26:52;8.80;;;3.20;;
52530;SDS011;38441;52.894;6.040;2022-08-03T06:29:18;11.52;;;2.92;;
52530;SDS011;38441;52.894;6.040;2022-08-03T06:31:44;10.75;;;2.60;;
52530;SDS011;38441;52.894;6.040;2022-08-03T06:34:09;11.73;;;2.70;;
52530;SDS011;38441;52.894;6.040;2022-08-03T06:36:37;12.30;;;2.55;;
52530;SDS011;38441;52.894;6.040;2022-08-03T06:39:03;11.32;;;3.13;;
52530;SDS011;38441;52.894;6.040;2022-08-03T06:41:29;13.70;;;3.20;;
52530;SDS011;38441;52.894;6.040;2022-08-03T06:43:54;13.15;;;3.30;;
52530;SDS011;38441;52.894;6.040;2022-08-03T06:46:20;9.80;;;3.17;;
52530;SDS011;38441;52.894;6.040;2022-08-03T06:48:46;9.32;;;3.30;;
52530;SDS011;38441;52.894;6.040;2022-08-03T06:51:12;9.52;;;3.10;;
52530;SDS011;38441;52.894;6.040;2022-08-03T06:53:38;10.18;;;2.80;;
52530;SDS011;38441;52.894;6.040;2022-08-03T06:56:04;6.82;;;2.60;;
52530;SDS011;38441;52.894;6.040;2022-08-03T06:58:30;17.13;;;3.25;;
52530;SDS011;38441;52.894;6.040;2022-08-03T07:00:55;10.35;;;2.63;;
52530;SDS011;38441;52.894;6.040;2022-08-03T07:03:21;10.40;;;4.20;;
52530;SDS011;38441;52.894;6.040;2022-08-03T07:05:47;11.20;;;3.45;;
52530;SDS011;38441;52.894;6.040;2022-08-03T07:08:13;11.13;;;2.80;;
52530;SDS011;38441;52.894;6.040;2022-08-03T07:10:39;8.65;;;3.42;;
52530;SDS011;38441;52.894;6.040;2022-08-03T07:13:05;12.05;;;3.60;;
52530;SDS011;38441;52.894;6.040;2022-08-03T07:15:31;13.05;;;3.92;;
52530;SDS011;38441;52.894;6.040;2022-08-03T07:17:56;11.93;;;3.55;;
52530;SDS011;38441;52.894;6.040;2022-08-03T07:20:22;9.68;;;3.30;;
52530;SDS011;38441;52.894;6.040;2022-08-03T07:22:48;12.35;;;3.67;;
52530;SDS011;38441;52.894;6.040;2022-08-03T07:25:14;11.27;;;3.85;;
52530;SDS011;38441;52.894;6.040;2022-08-03T07:27:47;12.70;;;4.00;;
52530;SDS011;38441;52.894;6.040;2022-08-03T07:30:13;11.60;;;4.15;;
52530;SDS011;38441;52.894;6.040;2022-08-03T07:32:39;10.45;;;4.13;;
52530;SDS011;38441;52.894;6.040;2022-08-03T07:35:06;13.60;;;4.45;;
52530;SDS011;38441;52.894;6.040;2022-08-03T07:37:33;14.40;;;4.05;;
52530;SDS011;38441;52.894;6.040;2022-08-03T07:39:59;7.95;;;4.15;;
52530;SDS011;38441;52.894;6.040;2022-08-03T07:42:26;12.65;;;4.35;;
52530;SDS011;38441;52.894;6.040;2022-08-03T07:44:52;12.93;;;4.35;;
52530;SDS011;38441;52.894;6.040;2022-08-03T07:47:19;11.02;;;3.97;;
52530;SDS011;38441;52.894;6.040;2022-08-03T07:49:48;14.80;;;4.68;;
52530;SDS011;38441;52.894;6.040;2022-08-03T07:52:14;10.98;;;4.50;;
52530;SDS011;38441;52.894;6.040;2022-08-03T07:54:58;9.88;;;4.28;;
52530;SDS011;38441;52.894;6.040;2022-08-03T07:57:24;13.55;;;5.32;;
52530;SDS011;38441;52.894;6.040;2022-08-03T07:59:49;11.20;;;4.25;;
52530;SDS011;38441;52.894;6.040;2022-08-03T08:02:15;11.00;;;4.93;;
52530;SDS011;38441;52.894;6.040;2022-08-03T08:04:40;18.15;;;4.75;;
52530;SDS011;38441;52.894;6.040;2022-08-03T08:07:06;10.05;;;4.38;;
52530;SDS011;38441;52.894;6.040;2022-08-03T08:09:32;13.20;;;4.90;;
52530;SDS011;38441;52.894;6.040;2022-08-03T08:11:58;8.43;;;3.95;;
52530;SDS011;38441;52.894;6.040;2022-08-03T08:14:24;15.18;;;4.93;;
52530;SDS011;38441;52.894;6.040;2022-08-03T08:16:49;11.15;;;4.22;;
52530;SDS011;38441;52.894;6.040;2022-08-03T08:19:15;9.93;;;4.40;;
52530;SDS011;38441;52.894;6.040;2022-08-03T08:21:41;12.98;;;4.13;;
52530;SDS011;38441;52.894;6.040;2022-08-03T08:24:08;9.23;;;3.60;;
52530;SDS011;38441;52.894;6.040;2022-08-03T08:26:33;12.98;;;4.30;;
52530;SDS011;38441;52.894;6.040;2022-08-03T08:28:59;14.57;;;4.20;;
52530;SDS011;38441;52.894;6.040;2022-08-03T08:31:25;9.23;;;3.63;;
52530;SDS011;38441;52.894;6.040;2022-08-03T08:33:50;11.77;;;4.13;;
52530;SDS011;38441;52.894;6.040;2022-08-03T08:36:16;10.05;;;4.07;;
52530;SDS011;38441;52.894;6.040;2022-08-03T08:38:42;10.15;;;3.83;;
52530;SDS011;38441;52.894;6.040;2022-08-03T08:41:09;10.88;;;4.28;;
52530;SDS011;38441;52.894;6.040;2022-08-03T08:43:35;18.00;;;4.80;;
52530;SDS011;38441;52.894;6.040;2022-08-03T08:46:01;15.82;;;4.82;;
52530;SDS011;38441;52.894;6.040;2022-08-03T08:48:27;10.07;;;4.43;;
52530;SDS011;38441;52.894;6.040;2022-08-03T08:50:54;13.25;;;4.47;;
52530;SDS011;38441;52.894;6.040;2022-08-03T08:53:21;10.18;;;4.22;;
52530;SDS011;38441;52.894;6.040;2022-08-03T08:55:50;11.02;;;3.78;;
52530;SDS011;38441;52.894;6.040;2022-08-03T08:58:17;13.40;;;5.53;;
52530;SDS011;38441;52.894;6.040;2022-08-03T09:00:45;10.38;;;4.28;;
52530;SDS011;38441;52.894;6.040;2022-08-03T09:03:12;12.68;;;4.38;;
52530;SDS011;38441;52.894;6.040;2022-08-03T09:05:41;14.80;;;4.63;;
52530;SDS011;38441;52.894;6.040;2022-08-03T09:08:07;14.18;;;4.18;;
52530;SDS011;38441;52.894;6.040;2022-08-03T09:10:33;14.18;;;4.47;;
52530;SDS011;38441;52.894;6.040;2022-08-03T09:12:59;10.77;;;4.47;;
52530;SDS011;38441;52.894;6.040;2022-08-03T09:15:25;9.20;;;4.30;;
52530;SDS011;38441;52.894;6.040;2022-08-03T09:17:57;14.75;;;4.50;;
52530;SDS011;38441;52.894;6.040;2022-08-03T09:20:24;12.60;;;5.20;;
52530;SDS011;38441;52.894;6.040;2022-08-03T09:22:52;12.15;;;5.07;;
52530;SDS011;38441;52.894;6.040;2022-08-03T09:25:30;13.23;;;4.45;;
52530;SDS011;38441;52.894;6.040;2022-08-03T09:28:04;14.02;;;4.68;;
52530;SDS011;38441;52.894;6.040;2022-08-03T09:30:29;18.10;;;4.70;;
52530;SDS011;38441;52.894;6.040;2022-08-03T09:33:02;13.40;;;4.85;;
52530;SDS011;38441;52.894;6.040;2022-08-03T09:35:29;13.20;;;5.43;;
52530;SDS011;38441;52.894;6.040;2022-08-03T09:38:14;14.95;;;4.45;;
52530;SDS011;38441;52.894;6.040;2022-08-03T09:40:42;13.38;;;4.47;;
52530;SDS011;38441;52.894;6.040;2022-08-03T09:43:09;17.27;;;5.50;;
52530;SDS011;38441;52.894;6.040;2022-08-03T09:45:36;11.90;;;4.82;;
52530;SDS011;38441;52.894;6.040;2022-08-03T09:50:54;13.48;;;5.45;;
52530;SDS011;38441;52.894;6.040;2022-08-03T09:53:21;9.60;;;5.00;;
52530;SDS011;38441;52.894;6.040;2022-08-03T09:55:54;12.55;;;5.07;;
52530;SDS011;38441;52.894;6.040;2022-08-03T09:58:25;14.63;;;4.53;;
52530;SDS011;38441;52.894;6.040;2022-08-03T10:00:53;14.52;;;5.10;;
52530;SDS011;38441;52.894;6.040;2022-08-03T10:03:18;11.60;;;4.80;;
52530;SDS011;38441;52.894;6.040;2022-08-03T10:05:44;13.90;;;4.78;;
52530;SDS011;38441;52.894;6.040;2022-08-03T10:08:14;13.90;;;4.43;;
52530;SDS011;38441;52.894;6.040;2022-08-03T10:10:42;10.85;;;4.55;;
52530;SDS011;38441;52.894;6.040;2022-08-03T10:13:15;11.95;;;4.05;;
52530;SDS011;38441;52.894;6.040;2022-08-03T10:15:44;13.98;;;3.97;;
52530;SDS011;38441;52.894;6.040;2022-08-03T10:18:10;11.30;;;3.92;;
52530;SDS011;38441;52.894;6.040;2022-08-03T10:20:37;12.68;;;4.03;;
52530;SDS011;38441;52.894;6.040;2022-08-03T10:23:13;13.13;;;4.35;;
52530;SDS011;38441;52.894;6.040;2022-08-03T10:25:40;14.05;;;4.65;;
52530;SDS011;38441;52.894;6.040;2022-08-03T10:28:08;13.13;;;4.13;;
52530;SDS011;38441;52.894;6.040;2022-08-03T10:30:40;12.20;;;4.63;;
52530;SDS011;38441;52.894;6.040;2022-08-03T10:33:16;11.68;;;4.18;;
52530;SDS011;38441;52.894;6.040;2022-08-03T10:35:46;13.32;;;4.32;;
52530;SDS011;38441;52.894;6.040;2022-08-03T10:38:17;12.20;;;3.85;;
52530;SDS011;38441;52.894;6.040;2022-08-03T10:40:44;14.32;;;4.03;;
52530;SDS011;38441;52.894;6.040;2022-08-03T10:43:11;12.23;;;4.00;;
52530;SDS011;38441;52.894;6.040;2022-08-03T10:45:47;16.05;;;5.07;;
52530;SDS011;38441;52.894;6.040;2022-08-03T10:48:12;16.70;;;4.93;;
52530;SDS011;38441;52.894;6.040;2022-08-03T10:50:39;15.98;;;5.20;;
52530;SDS011;38441;52.894;6.040;2022-08-03T10:53:07;14.60;;;4.88;;
52530;SDS011;38441;52.894;6.040;2022-08-03T11:01:05;18.02;;;5.60;;
52530;SDS011;38441;52.894;6.040;2022-08-03T11:03:32;11.93;;;5.55;;
52530;SDS011;38441;52.894;6.040;2022-08-03T11:06:15;15.00;;;6.35;;
52530;SDS011;38441;52.894;6.040;2022-08-03T11:08:48;13.35;;;5.88;;
52530;SDS011;38441;52.894;6.040;2022-08-03T11:16:41;23.75;;;8.23;;
52530;SDS011;38441;52.894;6.040;2022-08-03T11:19:19;17.02;;;6.25;;
52530;SDS011;38441;52.894;6.040;2022-08-03T11:21:52;13.98;;;6.03;;
52530;SDS011;38441;52.894;6.040;2022-08-03T11:46:00;14.50;;;6.47;;
52530;SDS011;38441;52.894;6.040;2022-08-03T11:48:34;15.52;;;6.28;;
52530;SDS011;38441;52.894;6.040;2022-08-03T11:51:02;14.65;;;5.97;;
52530;SDS011;38441;52.894;6.040;2022-08-03T11:53:30;14.95;;;6.88;;
52530;SDS011;38441;52.894;6.040;2022-08-03T11:56:01;15.27;;;6.53;;
52530;SDS011;38441;52.894;6.040;2022-08-03T11:58:27;15.13;;;5.85;;
52530;SDS011;38441;52.894;6.040;2022-08-03T12:01:03;20.27;;;5.85;;
52530;SDS011;38441;52.894;6.040;2022-08-03T12:03:33;15.07;;;5.72;;
52530;SDS011;38441;52.894;6.040;2022-08-03T12:06:00;13.52;;;6.47;;
52530;SDS011;38441;52.894;6.040;2022-08-03T12:10:52;13.90;;;5.35;;
52530;SDS011;38441;52.894;6.040;2022-08-03T12:13:21;12.55;;;5.70;;
52530;SDS011;38441;52.894;6.040;2022-08-03T12:15:55;16.40;;;5.90;;
52530;SDS011;38441;52.894;6.040;2022-08-03T12:18:23;14.07;;;5.75;;
52530;SDS011;38441;52.894;6.040;2022-08-03T12:20:50;15.13;;;5.30;;
52530;SDS011;38441;52.894;6.040;2022-08-03T12:23:17;16.70;;;6.25;;
52530;SDS011;38441;52.894;6.040;2022-08-03T12:25:44;14.85;;;5.53;;
52530;SDS011;38441;52.894;6.040;2022-08-03T12:28:14;16.38;;;5.32;;
52530;SDS011;38441;52.894;6.040;2022-08-03T12:30:47;16.50;;;5.65;;
52530;SDS011;38441;52.894;6.040;2022-08-03T12:33:24;10.80;;;5.32;;
52530;SDS011;38441;52.894;6.040;2022-08-03T12:36:02;12.70;;;4.28;;
52530;SDS011;38441;52.894;6.040;2022-08-03T12:38:30;15.95;;;5.15;;
52530;SDS011;38441;52.894;6.040;2022-08-03T12:41:00;12.95;;;4.20;;
52530;SDS011;38441;52.894;6.040;2022-08-03T12:43:30;11.48;;;4.25;;
52530;SDS011;38441;52.894;6.040;2022-08-03T12:46:06;16.55;;;5.45;;
52530;SDS011;38441;52.894;6.040;2022-08-03T12:48:56;12.25;;;4.65;;
52530;SDS011;38441;52.894;6.040;2022-08-03T12:54:29;12.10;;;5.55;;
52530;SDS011;38441;52.894;6.040;2022-08-03T12:56:56;11.43;;;4.32;;
52530;SDS011;38441;52.894;6.040;2022-08-03T12:59:24;11.45;;;4.78;;
52530;SDS011;38441;52.894;6.040;2022-08-03T13:01:58;12.75;;;4.53;;
52530;SDS011;38441;52.894;6.040;2022-08-03T13:04:28;9.82;;;3.80;;
52530;SDS011;38441;52.894;6.040;2022-08-03T13:06:59;10.27;;;3.67;;
52530;SDS011;38441;52.894;6.040;2022-08-03T13:09:27;11.18;;;3.70;;
52530;SDS011;38441;52.894;6.040;2022-08-03T13:14:51;12.13;;;3.97;;
52530;SDS011;38441;52.894;6.040;2022-08-03T13:17:19;11.82;;;4.80;;
52530;SDS011;38441;52.894;6.040;2022-08-03T13:19:45;10.68;;;4.25;;
52530;SDS011;38441;52.894;6.040;2022-08-03T13:24:44;10.48;;;4.03;;
52530;SDS011;38441;52.894;6.040;2022-08-03T13:27:11;11.18;;;3.97;;
52530;SDS011;38441;52.894;6.040;2022-08-03T13:29:38;10.93;;;3.35;;
52530;SDS011;38441;52.894;6.040;2022-08-03T13:32:04;16.15;;;4.20;;
52530;SDS011;38441;52.894;6.040;2022-08-03T13:34:30;10.15;;;3.70;;
52530;SDS011;38441;52.894;6.040;2022-08-03T13:36:56;8.30;;;3.53;;
52530;SDS011;38441;52.894;6.040;2022-08-03T13:39:22;9.95;;;3.67;;
52530;SDS011;38441;52.894;6.040;2022-08-03T13:41:48;12.45;;;3.60;;
52530;SDS011;38441;52.894;6.040;2022-08-03T13:44:13;10.70;;;3.30;;
52530;SDS011;38441;52.894;6.040;2022-08-03T13:46:39;11.07;;;3.92;;
52530;SDS011;38441;52.894;6.040;2022-08-03T13:49:05;10.32;;;4.03;;
52530;SDS011;38441;52.894;6.040;2022-08-03T13:51:32;12.85;;;3.55;;
52530;SDS011;38441;52.894;6.040;2022-08-03T13:53:58;9.60;;;3.55;;
52530;SDS011;38441;52.894;6.040;2022-08-03T13:56:24;8.27;;;3.42;;
52530;SDS011;38441;52.894;6.040;2022-08-03T13:58:50;9.38;;;3.78;;
52530;SDS011;38441;52.894;6.040;2022-08-03T14:01:16;7.85;;;3.10;;
52530;SDS011;38441;52.894;6.040;2022-08-03T14:03:42;9.80;;;3.30;;
52530;SDS011;38441;52.894;6.040;2022-08-03T14:06:08;11.93;;;3.58;;
52530;SDS011;38441;52.894;6.040;2022-08-03T14:08:33;12.25;;;3.60;;
52530;SDS011;38441;52.894;6.040;2022-08-03T14:10:59;9.43;;;3.03;;
52530;SDS011;38441;52.894;6.040;2022-08-03T14:13:25;8.02;;;3.28;;
52530;SDS011;38441;52.894;6.040;2022-08-03T14:15:50;8.55;;;3.40;;
52530;SDS011;38441;52.894;6.040;2022-08-03T14:18:16;8.93;;;3.75;;
52530;SDS011;38441;52.894;6.040;2022-08-03T14:20:45;7.97;;;3.30;;
52530;SDS011;38441;52.894;6.040;2022-08-03T14:23:11;9.63;;;2.80;;
52530;SDS011;38441;52.894;6.040;2022-08-03T14:25:37;7.28;;;2.97;;
52530;SDS011;38441;52.894;6.040;2022-08-03T14:28:02;9.45;;;3.08;;
52530;SDS011;38441;52.894;6.040;2022-08-03T14:30:28;9.95;;;2.92;;
52530;SDS011;38441;52.894;6.040;2022-08-03T14:32:55;14.73;;;3.45;;
52530;SDS011;38441;52.894;6.040;2022-08-03T14:35:21;8.00;;;2.92;;
52530;SDS011;38441;52.894;6.040;2022-08-03T14:37:46;8.85;;;3.30;;
52530;SDS011;38441;52.894;6.040;2022-08-03T14:40:12;7.65;;;2.55;;
52530;SDS011;38441;52.894;6.040;2022-08-03T14:42:37;8.98;;;2.55;;
52530;SDS011;38441;52.894;6.040;2022-08-03T14:45:04;8.57;;;2.95;;
52530;SDS011;38441;52.894;6.040;2022-08-03T14:47:30;8.73;;;2.90;;
52530;SDS011;38441;52.894;6.040;2022-08-03T14:49:55;8.13;;;3.20;;
52530;SDS011;38441;52.894;6.040;2022-08-03T14:52:21;9.68;;;3.13;;
52530;SDS011;38441;52.894;6.040;2022-08-03T14:54:47;8.60;;;3.10;;
52530;SDS011;38441;52.894;6.040;2022-08-03T14:57:12;8.07;;;3.00;;
52530;SDS011;38441;52.894;6.040;2022-08-03T14:59:38;10.32;;;2.95;;
52530;SDS011;38441;52.894;6.040;2022-08-03T15:02:03;9.38;;;3.08;;
52530;SDS011;38441;52.894;6.040;2022-08-03T15:04:29;10.75;;;2.63;;
52530;SDS011;38441;52.894;6.040;2022-08-03T15:06:54;11.50;;;3.38;;
52530;SDS011;38441;52.894;6.040;2022-08-03T15:09:20;8.55;;;2.58;;
52530;SDS011;38441;52.894;6.040;2022-08-03T15:11:46;8.55;;;2.40;;
52530;SDS011;38441;52.894;6.040;2022-08-03T15:14:11;12.50;;;2.53;;
52530;SDS011;38441;52.894;6.040;2022-08-03T15:16:38;10.30;;;3.10;;
52530;SDS011;38441;52.894;6.040;2022-08-03T15:19:04;11.27;;;3.30;;
52530;SDS011;38441;52.894;6.040;2022-08-03T15:21:30;8.05;;;2.67;;
52530;SDS011;38441;52.894;6.040;2022-08-03T15:23:56;6.68;;;2.17;;
52530;SDS011;38441;52.894;6.040;2022-08-03T15:26:21;8.50;;;2.67;;
52530;SDS011;38441;52.894;6.040;2022-08-03T15:28:47;11.07;;;2.72;;
52530;SDS011;38441;52.894;6.040;2022-08-03T15:31:13;12.35;;;3.47;;
52530;SDS011;38441;52.894;6.040;2022-08-03T15:33:39;7.43;;;2.67;;
52530;SDS011;38441;52.894;6.040;2022-08-03T15:36:05;6.90;;;2.05;;
52530;SDS011;38441;52.894;6.040;2022-08-03T15:38:30;5.28;;;1.90;;
52530;SDS011;38441;52.894;6.040;2022-08-03T15:40:56;6.53;;;1.95;;
52530;SDS011;38441;52.894;6.040;2022-08-03T15:43:23;10.60;;;2.10;;
52530;SDS011;38441;52.894;6.040;2022-08-03T15:45:48;9.13;;;2.50;;
52530;SDS011;38441;52.894;6.040;2022-08-03T15:48:14;8.93;;;2.08;;
52530;SDS011;38441;52.894;6.040;2022-08-03T15:50:40;7.93;;;2.13;;